Enfield, New Hampshire
Current Conditions -  °F | °C
As of 7:14 AM on Tuesday 27 Jan 2015 (Local Time) from KLEB Reporting Station
Light Snow Light Snow  
Wind Chill:   Ceiling: 800
Heat Index: 14°   Visibility: 1mi
Dew Point:   Wind: 8mph
Humidity: 80%   Direction: 360°N
Pressure: 29.78"   Gusts: NA
Location:  43.65°N, 72.14°W
Report Text: KLEB 271214Z 36007KT 1SM -SN VV008 M10/M13 A2978 RMK AO2 P0002 T11001128
Loading
Personal Weather Stations






























Interactive Weather Map New forecast layout! Learn more

10-Day Weather Forecast

Advertisements
Track Severe Weather on mobile